»·PEaware :: N149CD KSBA-KLGB

N149CD :: KSBA-KLGB

FLIGHT INFORMATION

Flight Status: Arrived
Operator: Privately registered:
United States
More flights under this callsign
Pilot: Nathan E. (30132)
Aircraft: CESSNA 172 SKYHAWK
(C172)
More flights by this aircraft type
Origin: KSBA Santa Barbara Mun
United States
Destination: KLGB Long Beach
United States
More flights between these airports :: More routes between these airports
Route: KWANG CMA VNY V186 ADAMM V394 SLI
File this flight plan on PilotEdge
Remarks: TEC route SBAP5
Altitude:
(Current/Filed)
5,000ft
Speed:
(Current/Filed)
110kts
Departed: 09-Oct-20 04:03 PM
Arrived: 09-Oct-20 05:12 PM
Distance/Time
Traveled:
91nm/1:08
Distance/Time
To Go:
Arrived

Flight Plot

Page will automatically refresh every two minutes.


Map Options




Map Legend


Flown Route
Filed Route
Departure Airport
Arrival Airport
Navaid (VOR, NDB)
Fix

Horizontal Profiles

Position Reports

Time Latitude Longitude Heading Altitude Ground
Speed
09-Oct-20 15:49 34.432569 -119.835086 71 13ft 0kts
09-Oct-20 15:50 34.432569 -119.835086 71 13ft 0kts
09-Oct-20 15:51 34.432569 -119.835086 71 13ft 0kts
09-Oct-20 15:52 34.432569 -119.835086 71 13ft 0kts
09-Oct-20 15:53 34.432569 -119.835086 71 13ft 0kts
09-Oct-20 15:54 34.432569 -119.835086 71 13ft 0kts
09-Oct-20 15:55 34.432569 -119.835086 71 13ft 0kts
09-Oct-20 15:56 34.432569 -119.835086 71 13ft 0kts
09-Oct-20 15:58 34.432569 -119.835086 71 13ft 0kts
09-Oct-20 15:59 34.432569 -119.835086 71 13ft 0kts
09-Oct-20 16:00 34.432254 -119.835127 211 13ft 7kts
09-Oct-20 16:01 34.428701 -119.834648 180 10ft 4kts
09-Oct-20 16:02 34.428691 -119.834648 181 10ft 0kts
09-Oct-20 16:03 34.427811 -119.839539 267 14ft 69kts
09-Oct-20 16:04 34.427597 -119.863736 266 1000ft 69kts
09-Oct-20 16:05 34.415641 -119.867211 120 1940ft 83kts
09-Oct-20 16:06 34.406913 -119.839105 113 2915ft 86kts
09-Oct-20 16:07 34.398604 -119.811426 113 3789ft 88kts
09-Oct-20 16:08 34.390130 -119.783160 113 4607ft 90kts
09-Oct-20 16:09 34.380429 -119.751027 112 5015ft 125kts
09-Oct-20 16:10 34.368388 -119.711005 112 5009ft 125kts
09-Oct-20 16:10 34.358362 -119.677620 112 5010ft 127kts
09-Oct-20 16:12 34.344166 -119.630366 111 5011ft 128kts
09-Oct-20 16:12 34.333951 -119.596405 111 5012ft 128kts
09-Oct-20 16:14 34.319623 -119.548833 111 5014ft 129kts
09-Oct-20 16:14 34.309503 -119.514583 107 5006ft 130kts
09-Oct-20 16:16 34.298032 -119.465288 105 5008ft 131kts
09-Oct-20 16:16 34.289889 -119.429784 105 5009ft 131kts
09-Oct-20 16:17 34.280138 -119.387253 105 5010ft 131kts
09-Oct-20 16:18 34.270350 -119.344606 105 5008ft 131kts
09-Oct-20 16:19 34.260530 -119.301894 105 5008ft 131kts
09-Oct-20 16:20 34.250746 -119.259392 105 5008ft 131kts
09-Oct-20 16:21 34.240963 -119.216971 106 5006ft 131kts
09-Oct-20 16:22 34.231186 -119.174666 106 5005ft 130kts
09-Oct-20 16:23 34.221388 -119.132345 107 5004ft 130kts
09-Oct-20 16:24 34.213410 -119.090022 91 5004ft 130kts
09-Oct-20 16:25 34.213700 -119.046297 89 5003ft 129kts
09-Oct-20 16:26 34.214455 -119.002924 89 5002ft 129kts
09-Oct-20 16:27 34.215281 -118.959727 89 5001ft 128kts
09-Oct-20 16:28 34.216104 -118.916860 89 5012ft 126kts
09-Oct-20 16:29 34.216904 -118.874664 89 5019ft 125kts
09-Oct-20 16:30 34.217690 -118.832465 89 5018ft 124kts
09-Oct-20 16:31 34.218455 -118.790703 89 5018ft 124kts
09-Oct-20 16:32 34.219186 -118.750303 90 5017ft 123kts
09-Oct-20 16:33 34.219940 -118.707572 90 5015ft 123kts
09-Oct-20 16:34 34.220651 -118.666514 91 5014ft 122kts
09-Oct-20 16:35 34.221347 -118.625449 91 5013ft 121kts
09-Oct-20 16:36 34.222022 -118.584839 91 5011ft 120kts
09-Oct-20 16:37 34.222677 -118.544523 91 5011ft 119kts
09-Oct-20 16:38 34.223312 -118.504458 91 5012ft 119kts
09-Oct-20 16:39 34.215906 -118.467524 111 5014ft 117kts
09-Oct-20 16:40 34.204500 -118.428988 112 5015ft 118kts
09-Oct-20 16:41 34.193194 -118.391671 112 5017ft 118kts
09-Oct-20 16:42 34.181844 -118.354288 112 5017ft 118kts
09-Oct-20 16:43 34.170433 -118.316757 112 5017ft 118kts
09-Oct-20 16:44 34.159038 -118.279327 112 5016ft 119kts
09-Oct-20 16:45 34.147582 -118.241728 112 5014ft 119kts
09-Oct-20 16:46 34.136045 -118.203903 111 5012ft 120kts
09-Oct-20 16:47 34.124449 -118.165944 111 5010ft 120kts
09-Oct-20 16:48 34.112817 -118.127919 110 5007ft 120kts
09-Oct-20 16:49 34.101168 -118.089978 108 5001ft 119kts
09-Oct-20 16:50 34.089717 -118.052522 109 5003ft 119kts
09-Oct-20 16:51 34.078129 -118.014820 109 5009ft 120kts
09-Oct-20 16:52 34.066409 -117.976701 109 5014ft 121kts
09-Oct-20 16:53 34.054572 -117.938253 109 5018ft 122kts
09-Oct-20 16:54 34.049466 -117.921683 109 5019ft 122kts
09-Oct-20 16:55 34.030713 -117.860915 109 5023ft 123kts
09-Oct-20 16:56 34.014562 -117.826246 166 5020ft 121kts
09-Oct-20 16:57 33.982547 -117.833822 202 5016ft 118kts
09-Oct-20 16:58 33.951667 -117.848481 203 5008ft 120kts
09-Oct-20 16:59 33.920806 -117.863398 202 5001ft 119kts
09-Oct-20 17:00 33.889990 -117.878276 203 5001ft 119kts
09-Oct-20 17:01 33.858229 -117.887402 182 4814ft 118kts
09-Oct-20 17:02 33.825339 -117.887201 181 4313ft 117kts
09-Oct-20 17:03 33.797333 -117.896648 259 3804ft 109kts
09-Oct-20 17:04 33.797541 -117.933166 271 3307ft 109kts
09-Oct-20 17:05 33.799906 -117.969846 278 2776ft 110kts
09-Oct-20 17:06 33.804088 -118.006144 279 2297ft 109kts
09-Oct-20 17:07 33.810485 -118.041915 290 1749ft 111kts
09-Oct-20 17:08 33.813712 -118.079699 268 1259ft 113kts
09-Oct-20 17:09 33.813886 -118.114194 267 735ft 82kts
09-Oct-20 17:10 33.813934 -118.137053 266 279ft 60kts
09-Oct-20 17:11 33.813906 -118.153355 272 40ft 19kts
09-Oct-20 17:12 33.813510 -118.155228 176 43ft 0kts
09-Oct-20 17:13 33.813126 -118.151247 88 39ft 14kts
09-Oct-20 17:14 33.813911 -118.153944 269 41ft 57kts
09-Oct-20 17:15 33.813687 -118.178154 252 885ft 73kts
09-Oct-20 17:16 33.803329 -118.155822 92 1063ft 115kts
09-Oct-20 17:17 33.808250 -118.133236 340 790ft 81kts
09-Oct-20 17:18 33.813898 -118.152902 270 40ft 27kts
09-Oct-20 17:19 33.812286 -118.156042 179 45ft 8kts
09-Oct-20 17:20 33.812116 -118.156037 179 45ft 0kts

Navigation Log

Ident Type
Flight plan parsing failed, navigation log unavailable